sensor_id;sensor_type;location;lat;lon;timestamp;P1;durP1;ratioP1;P2;durP2;ratioP2
77018;SDS011;66044;53.142;17.962;2023-02-28T00:01:20;51.00;;;17.90;;
77018;SDS011;66044;53.142;17.962;2023-02-28T00:03:47;46.60;;;19.00;;
77018;SDS011;66044;53.142;17.962;2023-02-28T00:06:13;51.50;;;18.50;;
77018;SDS011;66044;53.142;17.962;2023-02-28T00:08:40;35.90;;;14.50;;
77018;SDS011;66044;53.142;17.962;2023-02-28T00:11:07;58.50;;;20.80;;
77018;SDS011;66044;53.142;17.962;2023-02-28T00:13:37;53.50;;;18.80;;
77018;SDS011;66044;53.142;17.962;2023-02-28T00:16:06;61.20;;;18.40;;
77018;SDS011;66044;53.142;17.962;2023-02-28T00:18:35;41.80;;;15.10;;
77018;SDS011;66044;53.142;17.962;2023-02-28T00:21:02;40.70;;;15.40;;
77018;SDS011;66044;53.142;17.962;2023-02-28T00:23:29;39.30;;;14.00;;
77018;SDS011;66044;53.142;17.962;2023-02-28T00:25:59;29.70;;;11.60;;
77018;SDS011;66044;53.142;17.962;2023-02-28T00:28:34;35.30;;;13.20;;
77018;SDS011;66044;53.142;17.962;2023-02-28T00:31:00;28.40;;;11.60;;
77018;SDS011;66044;53.142;17.962;2023-02-28T00:33:27;26.90;;;11.50;;
77018;SDS011;66044;53.142;17.962;2023-02-28T00:36:01;28.70;;;12.80;;
77018;SDS011;66044;53.142;17.962;2023-02-28T00:38:34;29.10;;;12.60;;
77018;SDS011;66044;53.142;17.962;2023-02-28T00:41:01;33.20;;;12.80;;
77018;SDS011;66044;53.142;17.962;2023-02-28T00:43:35;32.80;;;12.50;;
77018;SDS011;66044;53.142;17.962;2023-02-28T00:46:03;33.20;;;13.00;;
77018;SDS011;66044;53.142;17.962;2023-02-28T00:48:30;26.10;;;11.40;;
77018;SDS011;66044;53.142;17.962;2023-02-28T00:50:57;26.40;;;11.00;;
77018;SDS011;66044;53.142;17.962;2023-02-28T00:53:23;25.40;;;11.30;;
77018;SDS011;66044;53.142;17.962;2023-02-28T00:55:50;23.40;;;10.30;;
77018;SDS011;66044;53.142;17.962;2023-02-28T00:58:16;24.70;;;9.70;;
77018;SDS011;66044;53.142;17.962;2023-02-28T01:00:43;28.00;;;10.80;;
77018;SDS011;66044;53.142;17.962;2023-02-28T01:03:15;24.50;;;10.10;;
77018;SDS011;66044;53.142;17.962;2023-02-28T01:05:43;21.80;;;10.30;;
77018;SDS011;66044;53.142;17.962;2023-02-28T01:08:09;23.30;;;11.20;;
77018;SDS011;66044;53.142;17.962;2023-02-28T01:10:36;21.80;;;9.30;;
77018;SDS011;66044;53.142;17.962;2023-02-28T01:13:02;28.10;;;11.40;;
77018;SDS011;66044;53.142;17.962;2023-02-28T01:15:29;31.80;;;10.40;;
77018;SDS011;66044;53.142;17.962;2023-02-28T01:17:58;26.00;;;10.70;;
77018;SDS011;66044;53.142;17.962;2023-02-28T01:20:24;24.80;;;10.80;;
77018;SDS011;66044;53.142;17.962;2023-02-28T01:22:51;22.50;;;10.00;;
77018;SDS011;66044;53.142;17.962;2023-02-28T01:25:17;20.60;;;9.40;;
77018;SDS011;66044;53.142;17.962;2023-02-28T01:27:44;23.70;;;9.20;;
77018;SDS011;66044;53.142;17.962;2023-02-28T01:30:11;23.10;;;9.80;;
77018;SDS011;66044;53.142;17.962;2023-02-28T01:32:38;28.40;;;11.40;;
77018;SDS011;66044;53.142;17.962;2023-02-28T01:35:04;24.90;;;10.10;;
77018;SDS011;66044;53.142;17.962;2023-02-28T01:37:31;27.20;;;10.40;;
77018;SDS011;66044;53.142;17.962;2023-02-28T01:39:57;25.60;;;10.40;;
77018;SDS011;66044;53.142;17.962;2023-02-28T01:42:24;26.20;;;9.70;;
77018;SDS011;66044;53.142;17.962;2023-02-28T01:44:58;23.40;;;10.00;;
77018;SDS011;66044;53.142;17.962;2023-02-28T01:47:38;23.00;;;10.20;;
77018;SDS011;66044;53.142;17.962;2023-02-28T01:50:12;22.30;;;9.20;;
77018;SDS011;66044;53.142;17.962;2023-02-28T01:52:42;22.80;;;8.70;;
77018;SDS011;66044;53.142;17.962;2023-02-28T01:55:11;24.60;;;9.20;;
77018;SDS011;66044;53.142;17.962;2023-02-28T01:57:40;21.10;;;8.30;;
77018;SDS011;66044;53.142;17.962;2023-02-28T02:00:13;21.20;;;9.50;;
77018;SDS011;66044;53.142;17.962;2023-02-28T02:02:41;18.50;;;9.30;;
77018;SDS011;66044;53.142;17.962;2023-02-28T02:05:14;19.80;;;9.10;;
77018;SDS011;66044;53.142;17.962;2023-02-28T02:07:46;27.00;;;9.60;;
77018;SDS011;66044;53.142;17.962;2023-02-28T02:10:20;28.50;;;11.50;;
77018;SDS011;66044;53.142;17.962;2023-02-28T02:25:11;24.00;;;8.60;;
77018;SDS011;66044;53.142;17.962;2023-02-28T02:38:53;28.80;;;9.90;;
77018;SDS011;66044;53.142;17.962;2023-02-28T02:41:50;21.10;;;8.30;;
77018;SDS011;66044;53.142;17.962;2023-02-28T02:47:11;28.00;;;11.00;;
77018;SDS011;66044;53.142;17.962;2023-02-28T02:49:51;32.00;;;13.10;;
77018;SDS011;66044;53.142;17.962;2023-02-28T02:52:20;33.30;;;11.90;;
77018;SDS011;66044;53.142;17.962;2023-02-28T02:54:51;34.50;;;12.20;;
77018;SDS011;66044;53.142;17.962;2023-02-28T02:57:24;28.90;;;11.30;;
77018;SDS011;66044;53.142;17.962;2023-02-28T02:59:56;32.10;;;12.70;;
77018;SDS011;66044;53.142;17.962;2023-02-28T03:02:24;29.70;;;12.30;;
77018;SDS011;66044;53.142;17.962;2023-02-28T03:05:01;39.10;;;15.00;;
77018;SDS011;66044;53.142;17.962;2023-02-28T03:07:34;32.80;;;14.00;;
77018;SDS011;66044;53.142;17.962;2023-02-28T03:10:01;36.80;;;14.80;;
77018;SDS011;66044;53.142;17.962;2023-02-28T03:12:40;40.20;;;15.90;;
77018;SDS011;66044;53.142;17.962;2023-02-28T03:15:18;36.20;;;13.60;;
77018;SDS011;66044;53.142;17.962;2023-02-28T03:18:24;40.10;;;15.70;;
77018;SDS011;66044;53.142;17.962;2023-02-28T03:20:55;39.60;;;16.20;;
77018;SDS011;66044;53.142;17.962;2023-02-28T03:23:42;42.70;;;17.50;;
77018;SDS011;66044;53.142;17.962;2023-02-28T03:26:23;36.50;;;15.00;;
77018;SDS011;66044;53.142;17.962;2023-02-28T03:28:55;38.40;;;13.70;;
77018;SDS011;66044;53.142;17.962;2023-02-28T03:31:44;47.20;;;17.00;;
77018;SDS011;66044;53.142;17.962;2023-02-28T03:34:22;38.40;;;14.70;;
77018;SDS011;66044;53.142;17.962;2023-02-28T03:36:53;41.60;;;15.60;;
77018;SDS011;66044;53.142;17.962;2023-02-28T03:42:10;27.20;;;10.60;;
77018;SDS011;66044;53.142;17.962;2023-02-28T03:44:42;39.50;;;14.30;;
77018;SDS011;66044;53.142;17.962;2023-02-28T03:47:16;34.40;;;14.10;;
77018;SDS011;66044;53.142;17.962;2023-02-28T03:49:50;34.20;;;13.30;;
77018;SDS011;66044;53.142;17.962;2023-02-28T03:52:25;34.00;;;12.60;;
77018;SDS011;66044;53.142;17.962;2023-02-28T03:54:58;35.70;;;15.40;;
77018;SDS011;66044;53.142;17.962;2023-02-28T04:00:27;31.20;;;13.60;;
77018;SDS011;66044;53.142;17.962;2023-02-28T04:02:58;33.30;;;13.30;;
77018;SDS011;66044;53.142;17.962;2023-02-28T04:05:25;24.00;;;10.30;;
77018;SDS011;66044;53.142;17.962;2023-02-28T04:07:53;26.10;;;11.70;;
77018;SDS011;66044;53.142;17.962;2023-02-28T04:10:20;34.20;;;11.90;;
77018;SDS011;66044;53.142;17.962;2023-02-28T04:12:47;35.90;;;13.40;;
77018;SDS011;66044;53.142;17.962;2023-02-28T04:15:13;31.20;;;13.40;;
77018;SDS011;66044;53.142;17.962;2023-02-28T04:17:39;25.40;;;12.50;;
77018;SDS011;66044;53.142;17.962;2023-02-28T04:20:06;30.70;;;13.30;;
77018;SDS011;66044;53.142;17.962;2023-02-28T04:22:36;31.50;;;13.70;;
77018;SDS011;66044;53.142;17.962;2023-02-28T04:25:03;32.00;;;13.30;;
77018;SDS011;66044;53.142;17.962;2023-02-28T04:27:31;31.40;;;12.40;;
77018;SDS011;66044;53.142;17.962;2023-02-28T04:29:58;29.30;;;12.60;;
77018;SDS011;66044;53.142;17.962;2023-02-28T04:32:24;25.10;;;11.30;;
77018;SDS011;66044;53.142;17.962;2023-02-28T04:34:51;28.70;;;11.80;;
77018;SDS011;66044;53.142;17.962;2023-02-28T04:37:17;38.50;;;14.60;;
77018;SDS011;66044;53.142;17.962;2023-02-28T04:39:44;35.60;;;14.80;;
77018;SDS011;66044;53.142;17.962;2023-02-28T04:42:10;39.10;;;16.20;;
77018;SDS011;66044;53.142;17.962;2023-02-28T04:44:37;29.40;;;12.50;;
77018;SDS011;66044;53.142;17.962;2023-02-28T04:47:04;40.10;;;15.60;;
77018;SDS011;66044;53.142;17.962;2023-02-28T04:49:31;35.40;;;13.80;;
77018;SDS011;66044;53.142;17.962;2023-02-28T04:51:57;39.50;;;15.60;;
77018;SDS011;66044;53.142;17.962;2023-02-28T04:54:24;42.20;;;15.30;;
77018;SDS011;66044;53.142;17.962;2023-02-28T04:56:50;43.10;;;15.50;;
77018;SDS011;66044;53.142;17.962;2023-02-28T04:59:17;41.90;;;16.50;;
77018;SDS011;66044;53.142;17.962;2023-02-28T05:01:47;49.60;;;18.30;;
77018;SDS011;66044;53.142;17.962;2023-02-28T05:04:14;47.70;;;19.50;;
77018;SDS011;66044;53.142;17.962;2023-02-28T05:06:41;56.20;;;20.60;;
77018;SDS011;66044;53.142;17.962;2023-02-28T05:09:08;89.30;;;25.90;;
77018;SDS011;66044;53.142;17.962;2023-02-28T05:11:34;84.70;;;27.10;;
77018;SDS011;66044;53.142;17.962;2023-02-28T05:14:02;97.30;;;28.80;;
77018;SDS011;66044;53.142;17.962;2023-02-28T05:16:33;109.40;;;32.40;;
77018;SDS011;66044;53.142;17.962;2023-02-28T05:18:59;106.00;;;31.10;;
77018;SDS011;66044;53.142;17.962;2023-02-28T05:21:30;100.00;;;31.30;;
77018;SDS011;66044;53.142;17.962;2023-02-28T05:24:17;100.20;;;34.40;;
77018;SDS011;66044;53.142;17.962;2023-02-28T05:26:49;124.40;;;36.40;;
77018;SDS011;66044;53.142;17.962;2023-02-28T05:29:18;123.30;;;36.10;;
77018;SDS011;66044;53.142;17.962;2023-02-28T05:31:45;147.70;;;39.20;;
77018;SDS011;66044;53.142;17.962;2023-02-28T05:34:12;140.20;;;36.60;;
77018;SDS011;66044;53.142;17.962;2023-02-28T05:36:38;111.30;;;30.20;;
77018;SDS011;66044;53.142;17.962;2023-02-28T05:39:06;98.20;;;29.70;;
77018;SDS011;66044;53.142;17.962;2023-02-28T05:41:33;92.00;;;26.90;;
77018;SDS011;66044;53.142;17.962;2023-02-28T05:44:00;89.10;;;26.90;;
77018;SDS011;66044;53.142;17.962;2023-02-28T05:46:26;70.30;;;24.10;;
77018;SDS011;66044;53.142;17.962;2023-02-28T05:48:53;72.80;;;23.10;;
77018;SDS011;66044;53.142;17.962;2023-02-28T05:51:19;65.40;;;22.80;;
77018;SDS011;66044;53.142;17.962;2023-02-28T05:53:46;70.00;;;23.00;;
77018;SDS011;66044;53.142;17.962;2023-02-28T05:56:14;62.80;;;20.80;;
77018;SDS011;66044;53.142;17.962;2023-02-28T05:58:40;69.80;;;24.50;;
77018;SDS011;66044;53.142;17.962;2023-02-28T06:04:08;52.60;;;19.30;;
77018;SDS011;66044;53.142;17.962;2023-02-28T06:06:36;51.70;;;19.60;;
77018;SDS011;66044;53.142;17.962;2023-02-28T06:09:03;53.90;;;19.70;;
77018;SDS011;66044;53.142;17.962;2023-02-28T06:11:31;52.90;;;21.10;;
77018;SDS011;66044;53.142;17.962;2023-02-28T06:13:59;70.70;;;26.10;;
77018;SDS011;66044;53.142;17.962;2023-02-28T06:16:27;61.80;;;25.40;;
77018;SDS011;66044;53.142;17.962;2023-02-28T06:18:54;58.60;;;22.50;;
77018;SDS011;66044;53.142;17.962;2023-02-28T06:21:23;57.00;;;21.80;;
77018;SDS011;66044;53.142;17.962;2023-02-28T06:23:50;47.50;;;20.00;;
77018;SDS011;66044;53.142;17.962;2023-02-28T06:26:17;55.10;;;21.20;;
77018;SDS011;66044;53.142;17.962;2023-02-28T06:28:43;41.30;;;19.50;;
77018;SDS011;66044;53.142;17.962;2023-02-28T06:31:11;46.70;;;22.40;;
77018;SDS011;66044;53.142;17.962;2023-02-28T06:33:40;46.00;;;20.60;;
77018;SDS011;66044;53.142;17.962;2023-02-28T06:36:09;59.30;;;27.20;;
77018;SDS011;66044;53.142;17.962;2023-02-28T06:38:36;54.40;;;27.40;;
77018;SDS011;66044;53.142;17.962;2023-02-28T06:41:03;57.10;;;26.40;;
77018;SDS011;66044;53.142;17.962;2023-02-28T06:43:32;68.20;;;28.70;;
77018;SDS011;66044;53.142;17.962;2023-02-28T06:46:00;81.30;;;33.60;;
77018;SDS011;66044;53.142;17.962;2023-02-28T06:48:29;104.60;;;42.20;;
77018;SDS011;66044;53.142;17.962;2023-02-28T06:51:05;90.50;;;41.50;;
77018;SDS011;66044;53.142;17.962;2023-02-28T06:53:36;78.30;;;35.70;;
77018;SDS011;66044;53.142;17.962;2023-02-28T06:56:03;50.50;;;24.80;;
77018;SDS011;66044;53.142;17.962;2023-02-28T06:58:32;45.00;;;21.70;;
77018;SDS011;66044;53.142;17.962;2023-02-28T07:00:59;35.40;;;17.60;;
77018;SDS011;66044;53.142;17.962;2023-02-28T07:03:26;36.50;;;18.50;;
77018;SDS011;66044;53.142;17.962;2023-02-28T07:05:52;38.60;;;18.90;;
77018;SDS011;66044;53.142;17.962;2023-02-28T07:08:18;36.50;;;19.50;;
77018;SDS011;66044;53.142;17.962;2023-02-28T07:10:45;45.20;;;21.70;;
77018;SDS011;66044;53.142;17.962;2023-02-28T07:13:11;47.30;;;23.70;;
77018;SDS011;66044;53.142;17.962;2023-02-28T07:15:38;54.00;;;27.30;;
77018;SDS011;66044;53.142;17.962;2023-02-28T07:18:05;54.40;;;28.00;;
77018;SDS011;66044;53.142;17.962;2023-02-28T07:20:31;57.50;;;31.10;;
77018;SDS011;66044;53.142;17.962;2023-02-28T07:22:57;55.30;;;30.60;;
77018;SDS011;66044;53.142;17.962;2023-02-28T07:25:28;58.40;;;32.40;;
77018;SDS011;66044;53.142;17.962;2023-02-28T07:27:55;56.00;;;31.60;;
77018;SDS011;66044;53.142;17.962;2023-02-28T07:30:22;46.80;;;25.70;;
77018;SDS011;66044;53.142;17.962;2023-02-28T07:32:48;43.70;;;26.20;;
77018;SDS011;66044;53.142;17.962;2023-02-28T07:35:15;40.50;;;25.00;;
77018;SDS011;66044;53.142;17.962;2023-02-28T07:37:42;39.80;;;24.30;;
77018;SDS011;66044;53.142;17.962;2023-02-28T07:40:09;40.80;;;23.80;;
77018;SDS011;66044;53.142;17.962;2023-02-28T07:42:40;36.20;;;22.10;;
77018;SDS011;66044;53.142;17.962;2023-02-28T07:45:07;32.30;;;20.30;;
77018;SDS011;66044;53.142;17.962;2023-02-28T07:47:41;31.90;;;20.60;;
77018;SDS011;66044;53.142;17.962;2023-02-28T07:50:10;33.00;;;21.20;;
77018;SDS011;66044;53.142;17.962;2023-02-28T07:52:39;32.20;;;21.20;;
77018;SDS011;66044;53.142;17.962;2023-02-28T07:55:06;31.60;;;19.60;;
77018;SDS011;66044;53.142;17.962;2023-02-28T07:57:34;30.40;;;20.90;;
77018;SDS011;66044;53.142;17.962;2023-02-28T08:00:01;31.90;;;23.00;;
77018;SDS011;66044;53.142;17.962;2023-02-28T08:02:29;32.50;;;25.20;;
77018;SDS011;66044;53.142;17.962;2023-02-28T08:04:56;33.70;;;22.90;;
77018;SDS011;66044;53.142;17.962;2023-02-28T08:07:22;32.40;;;22.20;;
77018;SDS011;66044;53.142;17.962;2023-02-28T08:09:49;31.40;;;21.00;;
77018;SDS011;66044;53.142;17.962;2023-02-28T08:12:15;33.10;;;21.50;;
77018;SDS011;66044;53.142;17.962;2023-02-28T08:14:41;29.10;;;19.00;;
77018;SDS011;66044;53.142;17.962;2023-02-28T08:17:09;22.60;;;14.70;;
77018;SDS011;66044;53.142;17.962;2023-02-28T08:19:36;23.10;;;14.80;;
77018;SDS011;66044;53.142;17.962;2023-02-28T08:22:03;26.30;;;16.80;;
77018;SDS011;66044;53.142;17.962;2023-02-28T08:24:29;24.30;;;16.10;;
77018;SDS011;66044;53.142;17.962;2023-02-28T08:26:56;24.80;;;15.60;;
77018;SDS011;66044;53.142;17.962;2023-02-28T08:29:22;23.20;;;15.30;;
77018;SDS011;66044;53.142;17.962;2023-02-28T08:31:49;26.00;;;13.90;;
77018;SDS011;66044;53.142;17.962;2023-02-28T08:34:16;17.80;;;9.90;;
77018;SDS011;66044;53.142;17.962;2023-02-28T08:36:43;17.50;;;9.30;;
77018;SDS011;66044;53.142;17.962;2023-02-28T08:39:11;21.90;;;11.30;;
77018;SDS011;66044;53.142;17.962;2023-02-28T08:41:38;21.40;;;11.90;;
77018;SDS011;66044;53.142;17.962;2023-02-28T08:44:04;22.30;;;12.90;;
77018;SDS011;66044;53.142;17.962;2023-02-28T08:46:31;26.00;;;14.80;;
77018;SDS011;66044;53.142;17.962;2023-02-28T08:48:57;24.80;;;13.50;;
77018;SDS011;66044;53.142;17.962;2023-02-28T08:51:26;23.50;;;13.60;;
77018;SDS011;66044;53.142;17.962;2023-02-28T08:53:55;22.10;;;13.50;;
77018;SDS011;66044;53.142;17.962;2023-02-28T08:56:23;22.90;;;13.20;;
77018;SDS011;66044;53.142;17.962;2023-02-28T08:58:50;24.30;;;13.00;;
77018;SDS011;66044;53.142;17.962;2023-02-28T09:01:18;20.60;;;10.60;;
77018;SDS011;66044;53.142;17.962;2023-02-28T09:03:46;23.20;;;11.70;;
77018;SDS011;66044;53.142;17.962;2023-02-28T09:06:15;17.10;;;9.20;;
77018;SDS011;66044;53.142;17.962;2023-02-28T09:08:43;16.50;;;8.30;;
77018;SDS011;66044;53.142;17.962;2023-02-28T09:11:11;13.30;;;7.00;;
77018;SDS011;66044;53.142;17.962;2023-02-28T09:13:38;15.10;;;6.80;;
77018;SDS011;66044;53.142;17.962;2023-02-28T09:16:06;12.50;;;6.50;;
77018;SDS011;66044;53.142;17.962;2023-02-28T09:18:36;12.90;;;5.60;;
77018;SDS011;66044;53.142;17.962;2023-02-28T09:21:07;12.90;;;4.70;;
77018;SDS011;66044;53.142;17.962;2023-02-28T09:23:35;9.40;;;4.10;;
77018;SDS011;66044;53.142;17.962;2023-02-28T09:26:04;11.40;;;4.70;;
77018;SDS011;66044;53.142;17.962;2023-02-28T09:28:31;9.40;;;3.90;;
77018;SDS011;66044;53.142;17.962;2023-02-28T09:30:57;11.60;;;3.60;;
77018;SDS011;66044;53.142;17.962;2023-02-28T09:33:25;7.80;;;3.00;;
77018;SDS011;66044;53.142;17.962;2023-02-28T09:35:57;9.00;;;2.70;;
77018;SDS011;66044;53.142;17.962;2023-02-28T09:38:26;8.30;;;3.00;;
77018;SDS011;66044;53.142;17.962;2023-02-28T09:40:56;7.50;;;2.40;;
77018;SDS011;66044;53.142;17.962;2023-02-28T09:43:30;9.30;;;2.50;;
77018;SDS011;66044;53.142;17.962;2023-02-28T09:48:57;7.40;;;2.40;;
77018;SDS011;66044;53.142;17.962;2023-02-28T09:51:30;6.50;;;2.30;;
77018;SDS011;66044;53.142;17.962;2023-02-28T09:54:04;10.10;;;2.50;;
77018;SDS011;66044;53.142;17.962;2023-02-28T09:56:37;8.20;;;2.70;;
77018;SDS011;66044;53.142;17.962;2023-02-28T09:59:29;8.60;;;2.80;;
77018;SDS011;66044;53.142;17.962;2023-02-28T10:05:01;8.20;;;2.40;;
77018;SDS011;66044;53.142;17.962;2023-02-28T10:07:50;9.50;;;2.90;;
77018;SDS011;66044;53.142;17.962;2023-02-28T10:10:36;7.40;;;2.80;;
77018;SDS011;66044;53.142;17.962;2023-02-28T10:13:31;9.50;;;2.80;;
77018;SDS011;66044;53.142;17.962;2023-02-28T10:15:54;8.20;;;2.90;;
77018;SDS011;66044;53.142;17.962;2023-02-28T10:18:27;7.40;;;2.70;;
77018;SDS011;66044;53.142;17.962;2023-02-28T10:20:59;9.80;;;3.20;;
77018;SDS011;66044;53.142;17.962;2023-02-28T10:23:28;9.10;;;3.50;;
77018;SDS011;66044;53.142;17.962;2023-02-28T10:25:59;7.10;;;2.90;;
77018;SDS011;66044;53.142;17.962;2023-02-28T10:28:31;7.60;;;2.50;;
77018;SDS011;66044;53.142;17.962;2023-02-28T10:30:58;6.40;;;2.00;;
77018;SDS011;66044;53.142;17.962;2023-02-28T10:33:32;10.50;;;3.30;;
77018;SDS011;66044;53.142;17.962;2023-02-28T10:36:01;8.40;;;2.70;;
77018;SDS011;66044;53.142;17.962;2023-02-28T10:38:32;6.60;;;2.50;;
77018;SDS011;66044;53.142;17.962;2023-02-28T10:41:04;9.00;;;2.80;;
77018;SDS011;66044;53.142;17.962;2023-02-28T10:43:32;8.50;;;3.00;;
77018;SDS011;66044;53.142;17.962;2023-02-28T10:46:03;6.90;;;2.50;;
77018;SDS011;66044;53.142;17.962;2023-02-28T10:48:32;10.10;;;3.40;;
77018;SDS011;66044;53.142;17.962;2023-02-28T10:51:01;8.30;;;3.30;;
77018;SDS011;66044;53.142;17.962;2023-02-28T10:53:34;10.40;;;3.80;;
77018;SDS011;66044;53.142;17.962;2023-02-28T10:56:06;12.20;;;3.60;;
77018;SDS011;66044;53.142;17.962;2023-02-28T11:06:59;9.40;;;3.40;;
77018;SDS011;66044;53.142;17.962;2023-02-28T11:09:28;10.60;;;4.30;;
77018;SDS011;66044;53.142;17.962;2023-02-28T11:11:58;11.00;;;4.10;;
77018;SDS011;66044;53.142;17.962;2023-02-28T11:14:27;10.30;;;3.70;;
77018;SDS011;66044;53.142;17.962;2023-02-28T11:16:58;8.40;;;2.80;;
77018;SDS011;66044;53.142;17.962;2023-02-28T11:19:34;7.60;;;3.00;;
77018;SDS011;66044;53.142;17.962;2023-02-28T11:22:11;10.00;;;3.30;;
77018;SDS011;66044;53.142;17.962;2023-02-28T11:24:46;8.00;;;2.80;;
77018;SDS011;66044;53.142;17.962;2023-02-28T11:27:45;7.00;;;2.90;;
77018;SDS011;66044;53.142;17.962;2023-02-28T11:30:23;6.40;;;2.20;;
77018;SDS011;66044;53.142;17.962;2023-02-28T11:32:52;6.20;;;2.20;;
77018;SDS011;66044;53.142;17.962;2023-02-28T11:35:21;7.10;;;2.20;;
77018;SDS011;66044;53.142;17.962;2023-02-28T11:38:00;6.20;;;1.80;;
77018;SDS011;66044;53.142;17.962;2023-02-28T11:40:34;6.90;;;2.20;;
77018;SDS011;66044;53.142;17.962;2023-02-28T11:46:04;7.10;;;2.40;;
77018;SDS011;66044;53.142;17.962;2023-02-28T11:48:48;8.10;;;2.40;;
77018;SDS011;66044;53.142;17.962;2023-02-28T11:51:45;7.10;;;2.30;;
77018;SDS011;66044;53.142;17.962;2023-02-28T12:11:41;7.10;;;2.40;;
77018;SDS011;66044;53.142;17.962;2023-02-28T12:17:22;10.00;;;3.60;;
77018;SDS011;66044;53.142;17.962;2023-02-28T12:20:02;9.30;;;2.60;;
77018;SDS011;66044;53.142;17.962;2023-02-28T12:22:50;9.90;;;3.70;;
77018;SDS011;66044;53.142;17.962;2023-02-28T12:26:13;8.90;;;3.00;;
77018;SDS011;66044;53.142;17.962;2023-02-28T12:28:20;12.20;;;3.50;;
77018;SDS011;66044;53.142;17.962;2023-02-28T12:31:00;9.40;;;3.50;;
77018;SDS011;66044;53.142;17.962;2023-02-28T12:33:35;6.90;;;2.40;;
77018;SDS011;66044;53.142;17.962;2023-02-28T12:36:18;8.40;;;2.70;;
77018;SDS011;66044;53.142;17.962;2023-02-28T12:38:49;8.00;;;3.30;;
77018;SDS011;66044;53.142;17.962;2023-02-28T12:41:22;7.50;;;2.40;;
77018;SDS011;66044;53.142;17.962;2023-02-28T12:43:57;7.90;;;3.00;;
77018;SDS011;66044;53.142;17.962;2023-02-28T12:46:33;7.90;;;2.70;;
77018;SDS011;66044;53.142;17.962;2023-02-28T12:49:16;7.20;;;2.40;;
77018;SDS011;66044;53.142;17.962;2023-02-28T12:51:46;7.10;;;2.70;;
77018;SDS011;66044;53.142;17.962;2023-02-28T12:56:58;8.00;;;3.00;;
77018;SDS011;66044;53.142;17.962;2023-02-28T12:59:45;9.50;;;2.90;;
77018;SDS011;66044;53.142;17.962;2023-02-28T13:13:12;7.60;;;2.70;;
77018;SDS011;66044;53.142;17.962;2023-02-28T13:15:56;7.40;;;2.60;;
77018;SDS011;66044;53.142;17.962;2023-02-28T13:18:35;9.70;;;3.20;;
77018;SDS011;66044;53.142;17.962;2023-02-28T13:21:06;10.00;;;3.80;;
77018;SDS011;66044;53.142;17.962;2023-02-28T13:26:12;12.70;;;5.10;;
77018;SDS011;66044;53.142;17.962;2023-02-28T13:31:19;10.90;;;4.50;;
77018;SDS011;66044;53.142;17.962;2023-02-28T13:34:04;9.10;;;2.90;;
77018;SDS011;66044;53.142;17.962;2023-02-28T13:36:38;11.90;;;5.40;;
77018;SDS011;66044;53.142;17.962;2023-02-28T13:47:29;7.90;;;2.40;;
77018;SDS011;66044;53.142;17.962;2023-02-28T13:50:14;8.00;;;2.00;;
77018;SDS011;66044;53.142;17.962;2023-02-28T13:52:45;8.80;;;4.10;;
77018;SDS011;66044;53.142;17.962;2023-02-28T13:55:24;8.40;;;2.90;;
77018;SDS011;66044;53.142;17.962;2023-02-28T14:07:01;8.40;;;2.60;;
77018;SDS011;66044;53.142;17.962;2023-02-28T14:09:36;10.50;;;3.90;;
77018;SDS011;66044;53.142;17.962;2023-02-28T14:18:02;7.90;;;2.60;;
77018;SDS011;66044;53.142;17.962;2023-02-28T14:20:36;6.10;;;2.00;;
77018;SDS011;66044;53.142;17.962;2023-02-28T14:23:09;8.20;;;3.00;;
77018;SDS011;66044;53.142;17.962;2023-02-28T14:31:34;8.10;;;2.80;;
77018;SDS011;66044;53.142;17.962;2023-02-28T14:37:15;6.60;;;2.20;;
77018;SDS011;66044;53.142;17.962;2023-02-28T14:39:49;8.50;;;3.10;;
77018;SDS011;66044;53.142;17.962;2023-02-28T14:45:20;8.70;;;3.30;;
77018;SDS011;66044;53.142;17.962;2023-02-28T14:47:51;8.10;;;2.90;;
77018;SDS011;66044;53.142;17.962;2023-02-28T14:50:19;7.50;;;2.40;;
77018;SDS011;66044;53.142;17.962;2023-02-28T14:52:50;9.30;;;4.20;;
77018;SDS011;66044;53.142;17.962;2023-02-28T14:55:19;9.70;;;3.90;;
77018;SDS011;66044;53.142;17.962;2023-02-28T14:57:54;11.40;;;4.20;;
77018;SDS011;66044;53.142;17.962;2023-02-28T15:00:27;12.50;;;4.90;;
77018;SDS011;66044;53.142;17.962;2023-02-28T15:02:55;11.90;;;4.60;;
77018;SDS011;66044;53.142;17.962;2023-02-28T15:05:27;12.30;;;3.80;;
77018;SDS011;66044;53.142;17.962;2023-02-28T15:08:18;11.10;;;3.80;;
77018;SDS011;66044;53.142;17.962;2023-02-28T15:10:50;10.70;;;3.80;;
77018;SDS011;66044;53.142;17.962;2023-02-28T15:13:20;8.30;;;2.60;;
77018;SDS011;66044;53.142;17.962;2023-02-28T15:15:49;11.40;;;3.90;;
77018;SDS011;66044;53.142;17.962;2023-02-28T15:21:02;12.00;;;4.00;;
77018;SDS011;66044;53.142;17.962;2023-02-28T15:23:31;9.90;;;3.50;;
77018;SDS011;66044;53.142;17.962;2023-02-28T15:26:01;7.00;;;3.00;;
77018;SDS011;66044;53.142;17.962;2023-02-28T15:28:28;8.40;;;3.40;;
77018;SDS011;66044;53.142;17.962;2023-02-28T15:30:57;9.50;;;3.70;;
77018;SDS011;66044;53.142;17.962;2023-02-28T15:33:26;9.70;;;3.80;;
77018;SDS011;66044;53.142;17.962;2023-02-28T15:36:12;8.70;;;3.80;;
77018;SDS011;66044;53.142;17.962;2023-02-28T15:38:41;10.80;;;3.80;;
77018;SDS011;66044;53.142;17.962;2023-02-28T15:41:21;13.30;;;4.90;;
77018;SDS011;66044;53.142;17.962;2023-02-28T15:46:54;14.40;;;5.40;;
77018;SDS011;66044;53.142;17.962;2023-02-28T15:49:24;11.30;;;4.90;;
77018;SDS011;66044;53.142;17.962;2023-02-28T15:51:52;12.90;;;5.60;;
77018;SDS011;66044;53.142;17.962;2023-02-28T15:54:23;16.60;;;7.70;;
77018;SDS011;66044;53.142;17.962;2023-02-28T15:56:54;19.10;;;9.60;;
77018;SDS011;66044;53.142;17.962;2023-02-28T15:59:25;18.20;;;9.10;;
77018;SDS011;66044;53.142;17.962;2023-02-28T16:04:36;17.90;;;6.90;;
77018;SDS011;66044;53.142;17.962;2023-02-28T16:07:04;15.70;;;6.90;;
77018;SDS011;66044;53.142;17.962;2023-02-28T16:09:32;15.40;;;5.50;;
77018;SDS011;66044;53.142;17.962;2023-02-28T16:11:59;12.90;;;5.20;;
77018;SDS011;66044;53.142;17.962;2023-02-28T16:14:28;16.80;;;6.40;;
77018;SDS011;66044;53.142;17.962;2023-02-28T16:17:05;13.50;;;5.00;;
77018;SDS011;66044;53.142;17.962;2023-02-28T16:19:34;16.30;;;6.20;;
77018;SDS011;66044;53.142;17.962;2023-02-28T16:22:01;22.40;;;8.40;;
77018;SDS011;66044;53.142;17.962;2023-02-28T16:24:27;18.50;;;8.40;;
77018;SDS011;66044;53.142;17.962;2023-02-28T16:26:54;21.60;;;10.60;;
77018;SDS011;66044;53.142;17.962;2023-02-28T16:29:23;27.00;;;12.10;;
77018;SDS011;66044;53.142;17.962;2023-02-28T16:31:53;23.80;;;11.90;;
77018;SDS011;66044;53.142;17.962;2023-02-28T16:34:19;26.80;;;12.50;;
77018;SDS011;66044;53.142;17.962;2023-02-28T16:36:49;26.00;;;13.30;;
77018;SDS011;66044;53.142;17.962;2023-02-28T16:39:16;30.00;;;13.20;;
77018;SDS011;66044;53.142;17.962;2023-02-28T16:41:43;34.90;;;15.90;;
77018;SDS011;66044;53.142;17.962;2023-02-28T16:44:13;60.90;;;24.40;;
77018;SDS011;66044;53.142;17.962;2023-02-28T16:46:46;65.60;;;27.50;;
77018;SDS011;66044;53.142;17.962;2023-02-28T16:49:13;71.10;;;29.50;;
77018;SDS011;66044;53.142;17.962;2023-02-28T16:51:40;85.70;;;32.10;;